createdAt,value
2018-12-06T00:00:41.259Z,1016.88
2018-12-06T00:01:41.243Z,1016.84
2018-12-06T00:02:41.234Z,1016.81
2018-12-06T00:03:41.225Z,1016.84
2018-12-06T00:04:41.213Z,1016.79
2018-12-06T00:05:41.207Z,1016.78
2018-12-06T00:06:41.197Z,1016.77
2018-12-06T00:07:41.185Z,1016.70
2018-12-06T00:08:41.178Z,1016.77
2018-12-06T00:09:41.167Z,1016.70
2018-12-06T00:10:41.156Z,1016.72
2018-12-06T00:11:41.147Z,1016.68
2018-12-06T00:12:41.137Z,1016.71
2018-12-06T00:13:41.124Z,1016.67
2018-12-06T00:14:41.116Z,1016.68
2018-12-06T00:15:41.103Z,1016.68
2018-12-06T00:16:41.102Z,1016.72
2018-12-06T00:17:41.090Z,1016.72
2018-12-06T00:18:41.075Z,1016.70
2018-12-06T00:19:41.069Z,1016.71
2018-12-06T00:20:41.055Z,1016.66
2018-12-06T00:21:41.047Z,1016.75
2018-12-06T00:22:41.040Z,1016.67
2018-12-06T00:23:41.027Z,1016.64
2018-12-06T00:24:41.018Z,1016.66
2018-12-06T00:25:41.007Z,1016.65
2018-12-06T00:26:40.992Z,1016.64
2018-12-06T00:27:40.991Z,1016.61
2018-12-06T00:28:40.976Z,1016.61
2018-12-06T00:29:40.968Z,1016.56
2018-12-06T00:30:40.961Z,1016.62
2018-12-06T00:31:40.943Z,1016.52
2018-12-06T00:32:40.938Z,1016.66
2018-12-06T00:33:40.927Z,1016.60
2018-12-06T00:34:40.918Z,1016.59
2018-12-06T00:35:40.913Z,1016.60
2018-12-06T00:36:40.897Z,1016.62
2018-12-06T00:37:40.888Z,1016.58
2018-12-06T00:38:40.884Z,1016.60
2018-12-06T00:39:40.866Z,1016.57
2018-12-06T00:40:40.859Z,1016.62
2018-12-06T00:41:40.847Z,1016.55
2018-12-06T00:42:40.837Z,1016.52
2018-12-06T00:43:40.828Z,1016.55
2018-12-06T00:44:40.816Z,1016.56
2018-12-06T00:45:40.811Z,1016.51
2018-12-06T00:46:40.797Z,1016.52
2018-12-06T00:47:40.787Z,1016.51
2018-12-06T00:48:40.779Z,1016.48
2018-12-06T00:49:40.772Z,1016.45
2018-12-06T00:50:40.758Z,1016.50
2018-12-06T00:51:40.751Z,1016.44
2018-12-06T00:52:40.739Z,1016.49
2018-12-06T00:53:40.729Z,1016.41
2018-12-06T00:54:40.719Z,1016.46
2018-12-06T00:55:40.710Z,1016.48
2018-12-06T00:56:40.696Z,1016.40
2018-12-06T00:57:40.691Z,1016.44
2018-12-06T00:58:40.678Z,1016.46
2018-12-06T00:59:40.668Z,1016.39
2018-12-06T01:00:40.663Z,1016.40
2018-12-06T01:01:40.650Z,1016.45
2018-12-06T01:02:40.650Z,1016.43
2018-12-06T01:03:40.627Z,1016.43
2018-12-06T01:04:40.621Z,1016.44
2018-12-06T01:05:40.612Z,1016.40
2018-12-06T01:06:40.599Z,1016.36
2018-12-06T01:07:40.598Z,1016.42
2018-12-06T01:08:40.580Z,1016.40
2018-12-06T01:09:40.566Z,1016.45
2018-12-06T01:10:40.559Z,1016.42
2018-12-06T01:11:40.549Z,1016.39
2018-12-06T01:12:40.541Z,1016.41
2018-12-06T01:13:40.536Z,1016.37
2018-12-06T01:14:40.518Z,1016.40
2018-12-06T01:15:40.508Z,1016.37
2018-12-06T01:16:40.502Z,1016.36
2018-12-06T01:17:40.493Z,1016.32
2018-12-06T01:18:40.519Z,1016.31
2018-12-06T01:19:40.475Z,1016.31
2018-12-06T01:20:40.460Z,1016.24
2018-12-06T01:21:40.450Z,1016.28
2018-12-06T01:22:40.438Z,1016.25
2018-12-06T01:23:40.431Z,1016.22
2018-12-06T01:24:40.424Z,1016.21
2018-12-06T01:25:40.416Z,1016.16
2018-12-06T01:26:40.401Z,1016.18
2018-12-06T01:27:40.390Z,1016.15
2018-12-06T01:28:40.380Z,1016.07
2018-12-06T01:29:40.377Z,1016.09
2018-12-06T01:30:40.362Z,1016.06
2018-12-06T01:31:40.349Z,1016.02
2018-12-06T01:32:40.344Z,1016.06
2018-12-06T01:33:40.330Z,1016.08
2018-12-06T01:34:40.322Z,1016.09
2018-12-06T01:35:40.314Z,1016.07
2018-12-06T01:36:40.300Z,1016.00
2018-12-06T01:37:40.292Z,1015.94
2018-12-06T01:38:40.284Z,1015.92
2018-12-06T01:39:40.274Z,1015.86
2018-12-06T01:40:40.262Z,1015.84
2018-12-06T01:41:40.251Z,1015.84
2018-12-06T01:42:40.240Z,1015.87
2018-12-06T01:43:40.238Z,1015.81
2018-12-06T01:44:40.223Z,1015.83
2018-12-06T01:45:40.214Z,1015.88
2018-12-06T01:46:40.203Z,1015.82
2018-12-06T01:47:40.196Z,1015.86
2018-12-06T01:48:40.183Z,1015.87
2018-12-06T01:49:40.173Z,1015.88
2018-12-06T01:50:40.165Z,1015.82
2018-12-06T01:51:40.155Z,1015.84
2018-12-06T01:52:40.142Z,1015.82
2018-12-06T01:53:40.134Z,1015.81
2018-12-06T01:54:40.125Z,1015.78
2018-12-06T01:55:40.114Z,1015.79
2018-12-06T01:56:40.107Z,1015.84
2018-12-06T01:57:40.097Z,1015.83
2018-12-06T01:58:40.079Z,1015.85
2018-12-06T01:59:40.077Z,1015.86
2018-12-06T02:00:40.060Z,1015.88
2018-12-06T02:01:40.052Z,1015.85
2018-12-06T02:02:40.044Z,1015.84
2018-12-06T02:03:40.035Z,1015.85
2018-12-06T02:04:40.021Z,1015.86
2018-12-06T02:05:40.016Z,1015.87
2018-12-06T02:06:40.011Z,1015.82
2018-12-06T02:07:39.997Z,1015.81
2018-12-06T02:08:39.983Z,1015.85
2018-12-06T02:09:39.979Z,1015.77
2018-12-06T02:10:39.971Z,1015.73
2018-12-06T02:11:39.950Z,1015.75
2018-12-06T02:12:39.944Z,1015.76
2018-12-06T02:13:39.932Z,1015.80
2018-12-06T02:14:39.931Z,1015.79
2018-12-06T02:15:39.920Z,1015.80
2018-12-06T02:16:39.902Z,1015.85
2018-12-06T02:17:39.894Z,1015.80
2018-12-06T02:18:39.894Z,1015.79
2018-12-06T02:19:39.874Z,1015.83
2018-12-06T02:20:39.861Z,1015.79
2018-12-06T02:21:39.856Z,1015.73
2018-12-06T02:22:39.845Z,1015.76
2018-12-06T02:23:39.834Z,1015.76
2018-12-06T02:24:39.826Z,1015.77
2018-12-06T02:25:39.814Z,1015.71
2018-12-06T02:26:39.808Z,1015.75
2018-12-06T02:27:39.797Z,1015.66
2018-12-06T02:28:39.784Z,1015.64
2018-12-06T02:29:39.776Z,1015.60
2018-12-06T02:30:39.765Z,1015.57
2018-12-06T02:31:39.756Z,1015.60
2018-12-06T02:32:41.801Z,1015.59
2018-12-06T02:33:39.736Z,1015.57
2018-12-06T02:34:39.727Z,1015.50
2018-12-06T02:35:39.714Z,1015.46
2018-12-06T02:36:39.705Z,1015.41
2018-12-06T02:37:39.700Z,1015.44
2018-12-06T02:38:39.698Z,1015.39
2018-12-06T02:39:39.677Z,1015.33
2018-12-06T02:40:39.666Z,1015.34
2018-12-06T02:41:39.651Z,1015.31
2018-12-06T02:42:39.646Z,1015.29
2018-12-06T02:43:39.643Z,1015.25
2018-12-06T02:44:39.624Z,1015.25
2018-12-06T02:45:39.621Z,1015.19
2018-12-06T02:46:39.606Z,1015.15
2018-12-06T02:47:39.593Z,1015.07
2018-12-06T02:48:39.588Z,1015.11
2018-12-06T02:49:39.581Z,1015.05
2018-12-06T02:50:39.571Z,1015.05
2018-12-06T02:51:39.554Z,1014.98
2018-12-06T02:52:39.546Z,1014.95
2018-12-06T02:53:39.536Z,1014.97
2018-12-06T02:54:39.529Z,1014.88
2018-12-06T02:55:39.512Z,1014.88
2018-12-06T02:56:39.511Z,1014.89
2018-12-06T02:57:39.500Z,1014.87
2018-12-06T02:58:39.487Z,1014.84
2018-12-06T02:59:39.481Z,1014.81
2018-12-06T03:00:39.466Z,1014.76
2018-12-06T03:01:39.467Z,1014.77
2018-12-06T03:02:39.446Z,1014.72
2018-12-06T03:03:39.442Z,1014.70
2018-12-06T03:04:39.426Z,1014.68
2018-12-06T03:05:39.419Z,1014.62
2018-12-06T03:06:39.407Z,1014.65
2018-12-06T03:07:39.400Z,1014.64
2018-12-06T03:08:39.388Z,1014.57
2018-12-06T03:09:39.384Z,1014.50
2018-12-06T03:10:39.367Z,1014.50
2018-12-06T03:11:39.357Z,1014.52
2018-12-06T03:12:39.347Z,1014.50
2018-12-06T03:13:39.344Z,1014.47
2018-12-06T03:14:39.329Z,1014.38
2018-12-06T03:15:39.322Z,1014.42
2018-12-06T03:16:39.308Z,1014.39
2018-12-06T03:17:39.301Z,1014.39
2018-12-06T03:18:39.288Z,1014.38
2018-12-06T03:19:39.278Z,1014.40
2018-12-06T03:20:39.273Z,1014.36
2018-12-06T03:21:39.258Z,1014.33
2018-12-06T03:22:39.250Z,1014.36
2018-12-06T03:23:39.242Z,1014.31
2018-12-06T03:24:39.230Z,1014.29
2018-12-06T03:25:39.220Z,1014.29
2018-12-06T03:26:39.208Z,1014.26
2018-12-06T03:27:39.199Z,1014.23
2018-12-06T03:28:39.194Z,1014.21
2018-12-06T03:29:39.179Z,1014.21
2018-12-06T03:30:39.169Z,1014.22
2018-12-06T03:31:39.173Z,1014.17
2018-12-06T03:32:39.152Z,1014.14
2018-12-06T03:33:39.147Z,1014.12
2018-12-06T03:34:39.135Z,1014.08
2018-12-06T03:35:39.117Z,1014.07
2018-12-06T03:36:39.109Z,1014.06
2018-12-06T03:37:39.104Z,1014.00
2018-12-06T03:38:39.089Z,1014.03
2018-12-06T03:39:39.089Z,1014.02
2018-12-06T03:40:39.079Z,1013.96
2018-12-06T03:41:39.063Z,1014.00
2018-12-06T03:42:39.048Z,1013.97
2018-12-06T03:43:39.040Z,1013.95
2018-12-06T03:44:39.031Z,1013.92
2018-12-06T03:45:39.024Z,1013.87
2018-12-06T03:46:39.015Z,1013.89
2018-12-06T03:47:39.002Z,1013.88
2018-12-06T03:48:38.997Z,1013.82
2018-12-06T03:49:39.001Z,1013.76
2018-12-06T03:50:38.979Z,1013.75
2018-12-06T03:51:38.967Z,1013.69
2018-12-06T03:52:38.960Z,1013.73
2018-12-06T03:53:39.056Z,1013.65
2018-12-06T03:54:38.930Z,1013.65
2018-12-06T03:55:38.925Z,1013.66
2018-12-06T03:56:38.914Z,1013.61
2018-12-06T03:57:38.907Z,1013.64
2018-12-06T03:58:38.898Z,1013.54
2018-12-06T03:59:38.881Z,1013.50
2018-12-06T04:00:38.876Z,1013.54
2018-12-06T04:01:38.868Z,1013.52
2018-12-06T04:02:38.852Z,1013.51
2018-12-06T04:03:38.850Z,1013.45
2018-12-06T04:04:38.844Z,1013.47
2018-12-06T04:05:38.828Z,1013.45
2018-12-06T04:06:38.810Z,1013.43
2018-12-06T04:07:38.804Z,1013.49
2018-12-06T04:08:38.794Z,1013.43
2018-12-06T04:09:38.790Z,1013.43
2018-12-06T04:10:38.774Z,1013.41
2018-12-06T04:11:38.766Z,1013.39
2018-12-06T04:12:38.761Z,1013.36
2018-12-06T04:13:38.747Z,1013.38
2018-12-06T04:14:38.740Z,1013.36
2018-12-06T04:15:38.725Z,1013.30
2018-12-06T04:16:38.716Z,1013.30
2018-12-06T04:17:38.709Z,1013.31
2018-12-06T04:18:38.696Z,1013.24
2018-12-06T04:19:38.688Z,1013.27
2018-12-06T04:20:38.678Z,1013.24
2018-12-06T04:21:38.669Z,1013.24
2018-12-06T04:22:38.654Z,1013.23
2018-12-06T04:23:38.652Z,1013.26
2018-12-06T04:24:38.641Z,1013.23
2018-12-06T04:25:38.632Z,1013.23
2018-12-06T04:26:38.621Z,1013.24
2018-12-06T04:27:38.613Z,1013.20
2018-12-06T04:28:38.602Z,1013.16
2018-12-06T04:29:38.592Z,1013.15
2018-12-06T04:30:38.604Z,1013.13
2018-12-06T04:31:38.570Z,1013.13
2018-12-06T04:32:38.562Z,1013.13
2018-12-06T04:33:38.557Z,1013.10
2018-12-06T04:34:38.540Z,1013.11
2018-12-06T04:35:38.537Z,1013.10
2018-12-06T04:36:38.529Z,1013.06
2018-12-06T04:37:38.515Z,1013.02
2018-12-06T04:38:38.505Z,1013.06
2018-12-06T04:39:38.495Z,1013.04
2018-12-06T04:40:38.484Z,1013.01
2018-12-06T04:41:38.478Z,1013.02
2018-12-06T04:42:38.471Z,1013.00
2018-12-06T04:43:38.462Z,1013.01
2018-12-06T04:44:38.453Z,1012.98
2018-12-06T04:45:38.437Z,1012.96
2018-12-06T04:46:38.428Z,1012.99
2018-12-06T04:47:38.417Z,1012.93
2018-12-06T04:48:38.419Z,1012.97
2018-12-06T04:49:38.402Z,1012.95
2018-12-06T04:50:38.386Z,1012.94
2018-12-06T04:51:38.383Z,1012.93
2018-12-06T04:52:38.370Z,1012.93
2018-12-06T04:53:38.360Z,1012.95
2018-12-06T04:54:38.352Z,1012.93
2018-12-06T04:55:38.341Z,1012.93
2018-12-06T04:56:38.337Z,1012.95
2018-12-06T04:57:38.322Z,1012.95
2018-12-06T04:58:38.317Z,1012.92
2018-12-06T04:59:38.306Z,1012.90
2018-12-06T05:00:38.295Z,1012.93
2018-12-06T05:01:38.288Z,1012.88
2018-12-06T05:02:38.273Z,1012.92
2018-12-06T05:03:38.266Z,1012.88
2018-12-06T05:04:38.260Z,1012.87
2018-12-06T05:05:38.248Z,1012.89
2018-12-06T05:06:38.240Z,1012.89
2018-12-06T05:07:38.227Z,1012.91
2018-12-06T05:08:38.252Z,1012.89
2018-12-06T05:09:38.212Z,1012.94
2018-12-06T05:10:38.197Z,1012.93
2018-12-06T05:11:38.191Z,1012.94
2018-12-06T05:12:38.181Z,1012.95
2018-12-06T05:13:38.175Z,1012.94
2018-12-06T05:14:38.161Z,1012.86
2018-12-06T05:15:38.156Z,1012.91
2018-12-06T05:16:38.146Z,1012.87
2018-12-06T05:17:38.135Z,1012.88
2018-12-06T05:18:38.121Z,1012.89
2018-12-06T05:19:38.113Z,1012.88
2018-12-06T05:20:38.104Z,1012.89
2018-12-06T05:21:38.095Z,1012.93
2018-12-06T05:22:38.089Z,1012.92
2018-12-06T05:23:38.074Z,1012.94
2018-12-06T05:24:38.068Z,1012.92
2018-12-06T05:25:38.061Z,1012.96
2018-12-06T05:26:38.048Z,1012.98
2018-12-06T05:27:38.041Z,1013.01
2018-12-06T05:28:38.032Z,1013.02
2018-12-06T05:29:38.019Z,1012.99
2018-12-06T05:30:38.011Z,1012.97
2018-12-06T05:31:38.002Z,1013.00
2018-12-06T05:32:37.997Z,1013.00
2018-12-06T05:33:37.987Z,1012.96
2018-12-06T05:34:37.972Z,1012.92
2018-12-06T05:35:37.968Z,1012.99
2018-12-06T05:36:37.959Z,1012.96
2018-12-06T05:37:37.948Z,1012.96
2018-12-06T05:38:37.934Z,1012.93
2018-12-06T05:39:37.929Z,1012.96
2018-12-06T05:40:37.926Z,1012.92
2018-12-06T05:41:37.909Z,1012.98
2018-12-06T05:42:37.908Z,1012.94
2018-12-06T05:43:37.888Z,1012.97
2018-12-06T05:44:37.882Z,1012.98
2018-12-06T05:45:37.872Z,1012.98
2018-12-06T05:46:37.862Z,1013.01
2018-12-06T05:47:37.854Z,1013.01
2018-12-06T05:48:37.936Z,1013.00
2018-12-06T05:49:37.836Z,1012.97
2018-12-06T05:50:37.911Z,1013.00
2018-12-06T05:51:37.817Z,1012.94
2018-12-06T05:52:37.815Z,1012.88
2018-12-06T05:53:37.798Z,1012.93
2018-12-06T05:54:37.788Z,1012.84
2018-12-06T05:55:37.784Z,1012.84
2018-12-06T05:56:37.770Z,1012.83
2018-12-06T05:57:37.761Z,1012.83
2018-12-06T05:58:37.751Z,1012.80
2018-12-06T05:59:37.741Z,1012.78
2018-12-06T06:00:37.736Z,1012.78
2018-12-06T06:01:37.724Z,1012.78
2018-12-06T06:02:37.718Z,1012.78
2018-12-06T06:03:37.705Z,1012.81
2018-12-06T06:04:37.700Z,1012.77
2018-12-06T06:05:37.696Z,1012.81
2018-12-06T06:06:37.681Z,1012.83
2018-12-06T06:07:37.670Z,1012.90
2018-12-06T06:08:37.658Z,1012.91
2018-12-06T06:09:37.652Z,1012.95
2018-12-06T06:10:37.644Z,1012.95
2018-12-06T06:11:37.637Z,1012.98
2018-12-06T06:12:37.630Z,1013.00
2018-12-06T06:13:37.615Z,1012.99
2018-12-06T06:14:37.605Z,1012.97
2018-12-06T06:15:37.598Z,1012.96
2018-12-06T06:16:37.584Z,1012.91
2018-12-06T06:17:37.578Z,1012.91
2018-12-06T06:18:37.568Z,1012.88
2018-12-06T06:19:37.591Z,1012.92
2018-12-06T06:20:37.552Z,1012.95
2018-12-06T06:21:37.541Z,1012.93
2018-12-06T06:22:37.533Z,1012.94
2018-12-06T06:23:37.610Z,1012.90
2018-12-06T06:24:37.517Z,1012.88
2018-12-06T06:25:37.507Z,1012.88
2018-12-06T06:26:37.495Z,1012.88
2018-12-06T06:27:37.483Z,1012.87
2018-12-06T06:28:37.475Z,1012.92
2018-12-06T06:29:37.469Z,1012.90
2018-12-06T06:30:37.460Z,1012.90
2018-12-06T06:31:37.446Z,1012.89
2018-12-06T06:32:37.441Z,1012.92
2018-12-06T06:33:37.427Z,1012.92
2018-12-06T06:34:37.423Z,1012.85
2018-12-06T06:35:37.414Z,1012.84
2018-12-06T06:36:37.404Z,1012.83
2018-12-06T06:37:37.396Z,1012.78
2018-12-06T06:38:37.385Z,1012.76
2018-12-06T06:39:37.379Z,1012.74
2018-12-06T06:40:37.372Z,1012.73
2018-12-06T06:41:37.362Z,1012.70
2018-12-06T06:42:37.347Z,1012.73
2018-12-06T06:43:37.340Z,1012.65
2018-12-06T06:44:37.331Z,1012.68
2018-12-06T06:45:37.322Z,1012.67
2018-12-06T06:46:37.312Z,1012.66
2018-12-06T06:47:37.303Z,1012.61
2018-12-06T06:48:37.305Z,1012.59
2018-12-06T06:49:37.284Z,1012.58
2018-12-06T06:50:37.283Z,1012.62
2018-12-06T06:51:37.270Z,1012.63
2018-12-06T06:52:37.258Z,1012.61
2018-12-06T06:53:37.248Z,1012.62
2018-12-06T06:54:37.239Z,1012.57
2018-12-06T06:55:37.234Z,1012.64
2018-12-06T06:56:37.220Z,1012.64
2018-12-06T06:57:37.216Z,1012.65
2018-12-06T06:58:37.206Z,1012.66
2018-12-06T06:59:37.190Z,1012.68
2018-12-06T07:00:37.185Z,1012.64
2018-12-06T07:01:37.173Z,1012.63
2018-12-06T07:02:37.165Z,1012.58
2018-12-06T07:03:38.018Z,1012.60
2018-12-06T07:04:37.153Z,1012.60
2018-12-06T07:05:37.139Z,1012.59
2018-12-06T07:06:37.126Z,1012.58
2018-12-06T07:07:37.119Z,1012.58
2018-12-06T07:08:37.110Z,1012.59
2018-12-06T07:09:37.118Z,1012.61
2018-12-06T07:10:37.094Z,1012.63
2018-12-06T07:11:37.078Z,1012.58
2018-12-06T07:12:37.075Z,1012.57
2018-12-06T07:13:37.070Z,1012.55
2018-12-06T07:14:37.057Z,1012.56
2018-12-06T07:15:37.049Z,1012.50
2018-12-06T07:16:37.035Z,1012.42
2018-12-06T07:17:37.031Z,1012.44
2018-12-06T07:18:37.017Z,1012.44
2018-12-06T07:19:37.007Z,1012.39
2018-12-06T07:21:04.608Z,1012.42
2018-12-06T07:21:36.995Z,1012.40
2018-12-06T07:22:36.983Z,1012.38
2018-12-06T07:23:36.972Z,1012.36
2018-12-06T07:24:36.961Z,1012.40
2018-12-06T07:25:36.952Z,1012.34
2018-12-06T07:26:36.977Z,1012.35
2018-12-06T07:27:36.937Z,1012.35
2018-12-06T07:28:36.927Z,1012.31
2018-12-06T07:29:36.915Z,1012.30
2018-12-06T07:30:36.911Z,1012.25
2018-12-06T07:31:36.900Z,1012.16
2018-12-06T07:32:36.891Z,1012.17
2018-12-06T07:33:36.883Z,1012.16
2018-12-06T07:34:36.871Z,1012.13
2018-12-06T07:35:36.865Z,1012.16
2018-12-06T07:36:36.851Z,1012.08
2018-12-06T07:37:36.840Z,1012.12
2018-12-06T07:38:36.834Z,1012.09
2018-12-06T07:39:36.830Z,1012.08
2018-12-06T07:40:36.818Z,1012.04
2018-12-06T07:41:36.805Z,1011.99
2018-12-06T07:42:36.794Z,1011.96
2018-12-06T07:43:36.790Z,1011.89
2018-12-06T07:44:36.775Z,1011.85
2018-12-06T07:45:36.776Z,1011.80
2018-12-06T07:46:36.757Z,1011.73
2018-12-06T07:47:36.751Z,1011.70
2018-12-06T07:48:36.744Z,1011.65
2018-12-06T07:49:36.738Z,1011.63
2018-12-06T07:50:36.724Z,1011.64
2018-12-06T07:51:36.713Z,1011.63
2018-12-06T07:52:36.705Z,1011.66
2018-12-06T07:53:36.695Z,1011.66
2018-12-06T07:54:36.692Z,1011.73
2018-12-06T07:55:36.681Z,1011.75
2018-12-06T07:56:36.668Z,1011.80
2018-12-06T07:57:36.657Z,1011.88
2018-12-06T07:58:36.653Z,1011.94
2018-12-06T07:59:36.641Z,1011.98
2018-12-06T08:00:36.630Z,1012.02
2018-12-06T08:01:36.618Z,1012.03
2018-12-06T08:02:36.612Z,1012.06
2018-12-06T08:03:36.608Z,1012.06
2018-12-06T08:04:36.594Z,1011.99
2018-12-06T08:05:36.592Z,1011.93
2018-12-06T08:06:36.577Z,1011.89
2018-12-06T08:07:36.567Z,1011.85
2018-12-06T08:08:36.558Z,1011.78
2018-12-06T08:09:36.548Z,1011.74
2018-12-06T08:10:36.540Z,1011.68
2018-12-06T08:11:36.528Z,1011.62
2018-12-06T08:12:36.518Z,1011.55
2018-12-06T08:13:36.515Z,1011.60
2018-12-06T08:14:36.506Z,1011.57
2018-12-06T08:15:36.502Z,1011.66
2018-12-06T08:16:36.484Z,1011.67
2018-12-06T08:17:36.476Z,1011.77
2018-12-06T08:18:36.467Z,1011.84
2018-12-06T08:19:36.460Z,1011.87
2018-12-06T08:20:36.448Z,1012.01
2018-12-06T08:21:36.437Z,1012.04
2018-12-06T08:22:36.427Z,1012.10
2018-12-06T08:23:36.420Z,1012.07
2018-12-06T08:24:36.413Z,1012.10
2018-12-06T08:25:36.403Z,1012.08
2018-12-06T08:26:36.393Z,1012.01
2018-12-06T08:27:36.385Z,1011.97
2018-12-06T08:28:36.377Z,1011.97
2018-12-06T08:29:37.044Z,1011.97
2018-12-06T08:30:36.359Z,1011.99
2018-12-06T08:31:36.346Z,1012.00
2018-12-06T08:32:36.341Z,1012.06
2018-12-06T08:33:36.331Z,1012.11
2018-12-06T08:34:36.322Z,1012.15
2018-12-06T08:35:36.315Z,1012.17
2018-12-06T08:36:36.301Z,1012.18
2018-12-06T08:37:36.300Z,1012.23
2018-12-06T08:38:36.285Z,1012.24
2018-12-06T08:39:36.276Z,1012.26
2018-12-06T08:40:36.273Z,1012.29
2018-12-06T08:41:36.262Z,1012.27
2018-12-06T08:42:36.250Z,1012.28
2018-12-06T08:43:36.238Z,1012.29
2018-12-06T08:44:36.235Z,1012.31
2018-12-06T08:45:36.226Z,1012.31
2018-12-06T08:46:36.215Z,1012.30
2018-12-06T08:47:36.207Z,1012.29
2018-12-06T08:48:36.200Z,1012.26
2018-12-06T08:49:36.185Z,1012.32
2018-12-06T08:50:36.178Z,1012.29
2018-12-06T08:51:36.186Z,1012.37
2018-12-06T08:52:36.169Z,1012.35
2018-12-06T08:53:36.153Z,1012.42
2018-12-06T08:54:36.142Z,1012.44
2018-12-06T08:55:36.135Z,1012.51
2018-12-06T08:56:36.127Z,1012.52
2018-12-06T08:57:36.121Z,1012.56
2018-12-06T08:58:36.106Z,1012.65
2018-12-06T08:59:36.100Z,1012.64
2018-12-06T09:00:36.093Z,1012.65
2018-12-06T09:01:36.092Z,1012.67
2018-12-06T09:02:36.075Z,1012.70
2018-12-06T09:03:36.063Z,1012.72
2018-12-06T09:04:37.601Z,1012.72
2018-12-06T09:05:36.048Z,1012.73
2018-12-06T09:06:36.040Z,1012.69
2018-12-06T09:07:36.033Z,1012.76
2018-12-06T09:08:36.023Z,1012.74
2018-12-06T09:09:36.014Z,1012.79
2018-12-06T09:10:36.008Z,1012.78
2018-12-06T09:11:35.997Z,1012.77
2018-12-06T09:12:35.992Z,1012.83
2018-12-06T09:13:35.993Z,1012.84
2018-12-06T09:14:35.971Z,1012.80
2018-12-06T09:15:35.965Z,1012.77
2018-12-06T09:16:35.960Z,1012.75
2018-12-06T09:17:35.957Z,1012.76
2018-12-06T09:18:35.944Z,1012.78
2018-12-06T09:19:35.933Z,1012.76
2018-12-06T09:20:35.921Z,1012.75
2018-12-06T09:21:35.916Z,1012.73
2018-12-06T09:22:35.908Z,1012.78
2018-12-06T09:23:35.896Z,1012.79
2018-12-06T09:24:35.886Z,1012.79
2018-12-06T09:25:35.882Z,1012.82
2018-12-06T09:26:35.871Z,1012.83
2018-12-06T09:27:35.864Z,1012.84
2018-12-06T09:28:35.853Z,1012.84
2018-12-06T09:29:35.850Z,1012.82
2018-12-06T09:30:35.840Z,1012.79
2018-12-06T09:31:35.830Z,1012.80
2018-12-06T09:32:35.821Z,1012.79
2018-12-06T09:33:35.811Z,1012.79
2018-12-06T09:34:35.805Z,1012.80
2018-12-06T09:35:35.798Z,1012.82
2018-12-06T09:36:35.794Z,1012.80
2018-12-06T09:37:35.779Z,1012.75
2018-12-06T09:38:35.768Z,1012.69
2018-12-06T09:39:35.763Z,1012.63
2018-12-06T09:40:35.756Z,1012.65
2018-12-06T09:41:35.749Z,1012.66
2018-12-06T09:42:35.735Z,1012.61
2018-12-06T09:43:35.726Z,1012.64
2018-12-06T09:44:35.722Z,1012.65
2018-12-06T09:45:35.714Z,1012.62
2018-12-06T09:46:35.712Z,1012.63
2018-12-06T09:47:35.701Z,1012.58
2018-12-06T09:48:35.694Z,1012.60
2018-12-06T09:49:35.679Z,1012.55
2018-12-06T09:50:35.670Z,1012.59
2018-12-06T09:51:35.664Z,1012.61
2018-12-06T09:52:36.632Z,1012.61
2018-12-06T09:53:35.651Z,1012.59
2018-12-06T09:54:35.655Z,1012.61
2018-12-06T09:55:35.634Z,1012.63
2018-12-06T09:56:35.621Z,1012.60
2018-12-06T09:57:36.127Z,1012.63
2018-12-06T09:58:35.607Z,1012.60
2018-12-06T09:59:35.599Z,1012.63
2018-12-06T10:00:35.592Z,1012.59
2018-12-06T10:01:35.590Z,1012.61
2018-12-06T10:02:35.572Z,1012.60
2018-12-06T10:03:35.566Z,1012.61
2018-12-06T10:04:35.556Z,1012.54
2018-12-06T10:05:35.547Z,1012.58
2018-12-06T10:06:35.541Z,1012.61
2018-12-06T10:07:35.538Z,1012.63
2018-12-06T10:08:35.525Z,1012.62
2018-12-06T10:09:35.520Z,1012.57
2018-12-06T10:10:35.504Z,1012.55
2018-12-06T10:11:35.502Z,1012.54
2018-12-06T10:12:35.498Z,1012.52
2018-12-06T10:13:35.495Z,1012.49
2018-12-06T10:14:35.476Z,1012.49
2018-12-06T10:15:35.467Z,1012.47
2018-12-06T10:16:35.463Z,1012.44
2018-12-06T10:17:35.450Z,1012.45
2018-12-06T10:18:35.444Z,1012.41
2018-12-06T10:19:35.441Z,1012.42
2018-12-06T10:20:35.431Z,1012.41
2018-12-06T10:21:35.418Z,1012.42
2018-12-06T10:22:35.412Z,1012.46
2018-12-06T10:23:35.407Z,1012.41
2018-12-06T10:24:35.391Z,1012.39
2018-12-06T10:25:35.386Z,1012.35
2018-12-06T10:26:35.381Z,1012.34
2018-12-06T10:27:35.373Z,1012.29
2018-12-06T10:28:35.361Z,1012.32
2018-12-06T10:29:35.355Z,1012.30
2018-12-06T10:30:35.343Z,1012.28
2018-12-06T10:31:35.335Z,1012.31
2018-12-06T10:32:35.328Z,1012.34
2018-12-06T10:33:35.320Z,1012.29
2018-12-06T10:34:35.318Z,1012.29
2018-12-06T10:35:35.303Z,1012.29
2018-12-06T10:36:35.298Z,1012.26
2018-12-06T10:37:35.286Z,1012.21
2018-12-06T10:38:35.296Z,1012.20
2018-12-06T10:39:35.275Z,1012.17
2018-12-06T10:40:35.269Z,1012.12
2018-12-06T10:41:35.264Z,1012.10
2018-12-06T10:42:35.262Z,1012.06
2018-12-06T10:43:35.246Z,1012.03
2018-12-06T10:44:35.234Z,1012.01
2018-12-06T10:45:35.224Z,1012.01
2018-12-06T10:46:35.216Z,1011.98
2018-12-06T10:47:35.210Z,1012.02
2018-12-06T10:48:35.198Z,1012.02
2018-12-06T10:49:35.193Z,1012.04
2018-12-06T10:50:35.182Z,1012.01
2018-12-06T10:51:35.173Z,1012.01
2018-12-06T10:52:35.170Z,1011.98
2018-12-06T10:53:35.159Z,1011.98
2018-12-06T10:54:35.156Z,1011.91
2018-12-06T10:55:35.150Z,1011.94
2018-12-06T10:56:35.143Z,1011.92
2018-12-06T10:57:35.130Z,1011.91
2018-12-06T10:58:35.119Z,1011.92
2018-12-06T10:59:35.199Z,1011.93
2018-12-06T11:00:35.104Z,1011.93
2018-12-06T11:01:35.101Z,1011.92
2018-12-06T11:02:35.090Z,1011.85
2018-12-06T11:03:35.086Z,1011.81
2018-12-06T11:04:35.073Z,1011.77
2018-12-06T11:05:35.069Z,1011.72
2018-12-06T11:06:35.057Z,1011.70
2018-12-06T11:07:35.053Z,1011.68
2018-12-06T11:08:35.040Z,1011.71
2018-12-06T11:09:35.040Z,1011.69
2018-12-06T11:10:35.027Z,1011.71
2018-12-06T11:11:35.015Z,1011.67
2018-12-06T11:12:35.010Z,1011.67
2018-12-06T11:13:35.006Z,1011.60
2018-12-06T11:14:35.001Z,1011.59
2018-12-06T11:15:34.986Z,1011.54
2018-12-06T11:16:34.987Z,1011.52
2018-12-06T11:17:35.556Z,1011.50
2018-12-06T11:18:34.964Z,1011.47
2018-12-06T11:19:34.959Z,1011.52
2018-12-06T11:20:34.946Z,1011.54
2018-12-06T11:21:34.943Z,1011.54
2018-12-06T11:22:34.936Z,1011.55
2018-12-06T11:23:34.932Z,1011.53
2018-12-06T11:24:34.925Z,1011.49
2018-12-06T11:25:34.917Z,1011.52
2018-12-06T11:26:34.900Z,1011.49
2018-12-06T11:27:34.893Z,1011.51
2018-12-06T11:28:34.888Z,1011.53
2018-12-06T11:29:34.885Z,1011.54
2018-12-06T11:30:34.873Z,1011.55
2018-12-06T11:31:34.864Z,1011.57
2018-12-06T11:32:34.856Z,1011.64
2018-12-06T11:33:34.849Z,1011.64
2018-12-06T11:34:34.845Z,1011.66
2018-12-06T11:35:34.844Z,1011.65
2018-12-06T11:36:34.832Z,1011.70
2018-12-06T11:37:34.821Z,1011.68
2018-12-06T11:38:34.811Z,1011.65
2018-12-06T11:39:34.816Z,1011.64
2018-12-06T11:40:34.798Z,1011.63
2018-12-06T11:41:34.793Z,1011.60
2018-12-06T11:42:35.574Z,1011.58
2018-12-06T11:43:34.781Z,1011.58
2018-12-06T11:44:34.768Z,1011.55
2018-12-06T11:45:34.759Z,1011.52
2018-12-06T11:46:34.754Z,1011.44
2018-12-06T11:47:34.747Z,1011.43
2018-12-06T11:48:34.741Z,1011.40
2018-12-06T11:49:34.730Z,1011.38
2018-12-06T11:50:34.724Z,1011.38
2018-12-06T11:51:34.719Z,1011.34
2018-12-06T11:52:34.705Z,1011.35
2018-12-06T11:53:34.709Z,1011.32
2018-12-06T11:54:34.690Z,1011.33
2018-12-06T11:55:34.752Z,1011.31
2018-12-06T11:56:34.678Z,1011.30
2018-12-06T11:57:34.674Z,1011.34
2018-12-06T11:58:34.663Z,1011.36
2018-12-06T11:59:34.656Z,1011.40
2018-12-06T12:00:34.646Z,1011.42
2018-12-06T12:01:34.640Z,1011.44
2018-12-06T12:02:34.637Z,1011.38
2018-12-06T12:03:34.624Z,1011.35
2018-12-06T12:04:34.620Z,1011.40
2018-12-06T12:05:34.607Z,1011.41